Portada
METAR-TAF:

METAR-TAF

Aeropuertos :

Orange, Francia

latitud: 44-08N, longitud: 004-50E, altitud: 60 m

Observación

El informe se hizo hace 15 minutos, a las 03:00 UTC
Viento 2 kt con dirección variable
Temperatura 13°C
Humedad 94%
Presión 1017 hPa
Visibilidad: 7000 m

METAR: LFMO 250300Z AUTO VRB02KT 7000 NSC 13/12 Q1017 TEMPO 3000 BR

Hora: 05:15 (03:15 UTC)

Pronóstico

El informe se hizo hace 1 hora y 15 minutos, a las 02:00 UTC
Pronóstico válido del 25 a las 03 UTC al 26 a las 03 UTC
Viento 2 kt con dirección variable
Visibilidad 10 km o más
sin nubes por debajo de 1500 m y sin presencia de cumulonimbus.
Temporalmente
del 25 a las 03 UTC al 25 a las 05 UTC
Visibilidad: 3000 m
neblina

TAF: LFMO 250200Z 2503/2603 VRB02KT CAVOK TEMPO 2503/2505 3000 BR

Observaciones y pronósticos meteorológicos de más de 4000 aeropuertos (mensajes METAR y TAF).

Los puntos amarillos y rojos representan las estaciones disponibles.

Ponga el ratón en el punto deseado para ver el nombre de la estación.

Haga clic para ver las observaciones y los pronósticos meteorológicos.

Para cambiar el mapa : haga clic en los botones verdes con una cruz de color negro para hacer un zoom, en el botón verde con un guión para alejar o en las flechas verdes para mapas adyacentes.


METAR-TAF: